Thunder radar more information blitzortung!


Radar de pluja more information rain snow radar


Visita la nostra xarxa de llocs de meteo:

Template documentation
and downloads

And another site



No particular awareness of the weather is required.    There are no Weather-warnings

Pagina Historial Weather Underground text

Diari Resum Agost 6, 2017 Unitats:  Tant    Imperial   Mètric
« Previous Dia
SegĂźent Dia »
Diari Setmana Mensual Anual Personalitzada
  Maxima: Minima: Media:
Temperatura: 94.5 °F /  34.7 °C 72 °F /  22.2 °C 82.8 °F /  28.2 °C
Punt de rosada: 67.1 °F /  19.5 °C 61.9 °F /  16.6 °C 65.5 °F /  18.6 °C
Humitat: 78 % 39 % 58 %
Wind Speed: 15 mph /  24.1 km/h - 4.2 mph /  6.8 km/h
RĂ fegues de vent: 15 mph /  24.1 km/h - -
Vent:- - SSW
Pression baro: 30 in /  1015.8 hPa 29.9 in /  1013.8 hPa -
Precipitacions: 0 in /  0.0 mm    
Historical Graphs
 
 
Dades de taula per Agost 6, 2017
Temps Temperatura Punt de rosada Pression baro Vent Wind Speed RĂ fegues de vent Humitat Rainfall Rate (Hourly)
00:00 75.4 °F /  24.1 °C 64.9 °F /  18.3 °C 29.9 in /  1013.8 hPa NNE 1 mph /  1.6 km/h 2 mph /  3.2 km/h 70 % 0 in /  0.0 mm
00:01 80.1 °F /  26.7 °C 61.9 °F /  16.6 °C 29.9 in /  1013.8 hPa Calm     54 % 0 in /  0.0 mm
00:10 75 °F /  23.9 °C 64.9 °F /  18.3 °C 29.9 in /  1013.8 hPa Calm   2 mph /  3.2 km/h 71 % 0 in /  0.0 mm
00:20 74.8 °F /  23.8 °C 64.8 °F /  18.2 °C 29.9 in /  1013.8 hPa Calm   1 mph /  1.6 km/h 71 % 0 in /  0.0 mm
00:30 75 °F /  23.9 °C 65.5 °F /  18.6 °C 29.9 in /  1013.8 hPa Calm   1 mph /  1.6 km/h 72 % 0 in /  0.0 mm
00:40 74.5 °F /  23.6 °C 64.9 °F /  18.3 °C 29.9 in /  1013.8 hPa Calm   2 mph /  3.2 km/h 72 % 0 in /  0.0 mm
00:50 74.7 °F /  23.7 °C 64.9 °F /  18.3 °C 29.9 in /  1013.8 hPa North 2 mph /  3.2 km/h 2 mph /  3.2 km/h 72 % 0 in /  0.0 mm
01:00 74.7 °F /  23.7 °C 65.5 °F /  18.6 °C 29.9 in /  1013.8 hPa Calm   2 mph /  3.2 km/h 73 % 0 in /  0.0 mm
01:10 74.8 °F /  23.8 °C 65.1 °F /  18.4 °C 30 in /  1014.8 hPa Calm   1 mph /  1.6 km/h 72 % 0 in /  0.0 mm
01:20 74.8 °F /  23.8 °C 65.1 °F /  18.4 °C 29.9 in /  1013.8 hPa Calm   1 mph /  1.6 km/h 72 % 0 in /  0.0 mm
01:30 74.5 °F /  23.6 °C 64.9 °F /  18.3 °C 29.9 in /  1013.8 hPa Calm   2 mph /  3.2 km/h 72 % 0 in /  0.0 mm
01:40 73.9 °F /  23.3 °C 64.2 °F /  17.9 °C 30 in /  1014.8 hPa SW 2 mph /  3.2 km/h 3 mph /  4.8 km/h 72 % 0 in /  0.0 mm
01:50 73.9 °F /  23.3 °C 64.8 °F /  18.2 °C 30 in /  1014.8 hPa SW 1 mph /  1.6 km/h 2 mph /  3.2 km/h 73 % 0 in /  0.0 mm
02:00 74.1 °F /  23.4 °C 64.9 °F /  18.3 °C 30 in /  1014.8 hPa Calm   1 mph /  1.6 km/h 73 % 0 in /  0.0 mm
02:10 73.9 °F /  23.3 °C 64.8 °F /  18.2 °C 30 in /  1014.8 hPa NW 1 mph /  1.6 km/h 2 mph /  3.2 km/h 73 % 0 in /  0.0 mm
02:20 73.8 °F /  23.2 °C 64.9 °F /  18.3 °C 30 in /  1014.8 hPa SW 1 mph /  1.6 km/h 1 mph /  1.6 km/h 74 % 0 in /  0.0 mm
02:30 73.8 °F /  23.2 °C 64.9 °F /  18.3 °C 30 in /  1014.8 hPa SW 1 mph /  1.6 km/h 2 mph /  3.2 km/h 74 % 0 in /  0.0 mm
02:40 73.8 °F /  23.2 °C 64.9 °F /  18.3 °C 30 in /  1014.8 hPa WSW 1 mph /  1.6 km/h 3 mph /  4.8 km/h 74 % 0 in /  0.0 mm
02:50 74.7 °F /  23.7 °C 65.8 °F /  18.8 °C 30 in /  1014.8 hPa North 1 mph /  1.6 km/h 2 mph /  3.2 km/h 74 % 0 in /  0.0 mm
03:00 74.5 °F /  23.6 °C 65.3 °F /  18.5 °C 30 in /  1014.8 hPa North 1 mph /  1.6 km/h 2 mph /  3.2 km/h 73 % 0 in /  0.0 mm
03:10 74.3 °F /  23.5 °C 65.5 °F /  18.6 °C 30 in /  1014.8 hPa SW 1 mph /  1.6 km/h 2 mph /  3.2 km/h 74 % 0 in /  0.0 mm
03:20 74.5 °F /  23.6 °C 65.7 °F /  18.7 °C 30 in /  1015.8 hPa SW 2 mph /  3.2 km/h 2 mph /  3.2 km/h 74 % 0 in /  0.0 mm
03:30 74.8 °F /  23.8 °C 65.1 °F /  18.4 °C 30 in /  1015.8 hPa Calm   2 mph /  3.2 km/h 72 % 0 in /  0.0 mm
03:40 75.7 °F /  24.3 °C 64.8 °F /  18.2 °C 30 in /  1015.8 hPa SW 1 mph /  1.6 km/h 2 mph /  3.2 km/h 69 % 0 in /  0.0 mm
03:50 76.5 °F /  24.7 °C 65.5 °F /  18.6 °C 30 in /  1015.8 hPa Calm   1 mph /  1.6 km/h 69 % 0 in /  0.0 mm
04:00 77.9 °F /  25.5 °C 66 °F /  18.9 °C 30 in /  1015.8 hPa SSW 1 mph /  1.6 km/h 2 mph /  3.2 km/h 67 % 0 in /  0.0 mm
04:10 79.5 °F /  26.4 °C 65.8 °F /  18.8 °C 30 in /  1015.8 hPa SSW 2 mph /  3.2 km/h 2 mph /  3.2 km/h 63 % 0 in /  0.0 mm
04:20 80.2 °F /  26.8 °C 65.7 °F /  18.7 °C 30 in /  1015.8 hPa SSW 1 mph /  1.6 km/h 2 mph /  3.2 km/h 61 % 0 in /  0.0 mm
04:30 80.4 °F /  26.9 °C 65.7 °F /  18.7 °C 30 in /  1015.8 hPa SW 1 mph /  1.6 km/h 3 mph /  4.8 km/h 61 % 0 in /  0.0 mm
04:40 81.1 °F /  27.3 °C 65.5 °F /  18.6 °C 30 in /  1015.8 hPa SW 2 mph /  3.2 km/h 3 mph /  4.8 km/h 59 % 0 in /  0.0 mm
04:50 82.8 °F /  28.2 °C 66.9 °F /  19.4 °C 30 in /  1015.8 hPa Calm   2 mph /  3.2 km/h 59 % 0 in /  0.0 mm
05:00 83.7 °F /  28.7 °C 66.4 °F /  19.1 °C 30 in /  1015.8 hPa SE 2 mph /  3.2 km/h 3 mph /  4.8 km/h 56 % 0 in /  0.0 mm
05:10 82.8 °F /  28.2 °C 64.4 °F /  18.0 °C 30 in /  1014.8 hPa East 3 mph /  4.8 km/h 3 mph /  4.8 km/h 54 % 0 in /  0.0 mm
05:20 83.8 °F /  28.8 °C 65.8 °F /  18.8 °C 30 in /  1015.8 hPa ESE 2 mph /  3.2 km/h 2 mph /  3.2 km/h 55 % 0 in /  0.0 mm
05:30 86.2 °F /  30.1 °C 66.9 °F /  19.4 °C 30 in /  1015.8 hPa SSE 1 mph /  1.6 km/h 4 mph /  6.4 km/h 53 % 0 in /  0.0 mm
05:40 86.5 °F /  30.3 °C 66.7 °F /  19.3 °C 30 in /  1015.8 hPa Calm   3 mph /  4.8 km/h 52 % 0 in /  0.0 mm
05:50 86.2 °F /  30.1 °C 65.8 °F /  18.8 °C 30 in /  1015.8 hPa South 1 mph /  1.6 km/h 4 mph /  6.4 km/h 51 % 0 in /  0.0 mm
06:00 87.4 °F /  30.8 °C 67.1 °F /  19.5 °C 30 in /  1015.8 hPa South 1 mph /  1.6 km/h 4 mph /  6.4 km/h 51 % 0 in /  0.0 mm
06:10 87.6 °F /  30.9 °C 66 °F /  18.9 °C 30 in /  1015.8 hPa SSW 1 mph /  1.6 km/h 2 mph /  3.2 km/h 49 % 0 in /  0.0 mm
06:20 88.3 °F /  31.3 °C 66.2 °F /  19.0 °C 30 in /  1015.8 hPa SSW 3 mph /  4.8 km/h 3 mph /  4.8 km/h 48 % 0 in /  0.0 mm
06:30 88.2 °F /  31.2 °C 65.5 °F /  18.6 °C 30 in /  1015.8 hPa SW 2 mph /  3.2 km/h 4 mph /  6.4 km/h 47 % 0 in /  0.0 mm
06:40 88.5 °F /  31.4 °C 65.1 °F /  18.4 °C 30 in /  1015.8 hPa West 2 mph /  3.2 km/h 3 mph /  4.8 km/h 46 % 0 in /  0.0 mm
06:50 90.3 °F /  32.4 °C 66 °F /  18.9 °C 30 in /  1015.8 hPa NW 1 mph /  1.6 km/h 3 mph /  4.8 km/h 45 % 0 in /  0.0 mm
07:00 91.4 °F /  33.0 °C 65.8 °F /  18.8 °C 30 in /  1015.8 hPa SSW 2 mph /  3.2 km/h 3 mph /  4.8 km/h 43 % 0 in /  0.0 mm
07:10 92.7 °F /  33.7 °C 66.2 °F /  19.0 °C 30 in /  1014.8 hPa SSE 2 mph /  3.2 km/h 4 mph /  6.4 km/h 42 % 0 in /  0.0 mm
07:20 91.2 °F /  32.9 °C 65.7 °F /  18.7 °C 30 in /  1015.8 hPa South 3 mph /  4.8 km/h 6 mph /  9.7 km/h 43 % 0 in /  0.0 mm
07:30 91 °F /  32.8 °C 64.8 °F /  18.2 °C 30 in /  1015.8 hPa SW 3 mph /  4.8 km/h 3 mph /  4.8 km/h 42 % 0 in /  0.0 mm
07:40 92.8 °F /  33.8 °C 65.7 °F /  18.7 °C 30 in /  1014.8 hPa SW 2 mph /  3.2 km/h 3 mph /  4.8 km/h 41 % 0 in /  0.0 mm
07:50 93 °F /  33.9 °C 65.8 °F /  18.8 °C 30 in /  1014.8 hPa SSW 1 mph /  1.6 km/h 3 mph /  4.8 km/h 41 % 0 in /  0.0 mm
08:00 93.4 °F /  34.1 °C 65.5 °F /  18.6 °C 30 in /  1014.8 hPa SSW 1 mph /  1.6 km/h 4 mph /  6.4 km/h 40 % 0 in /  0.0 mm
08:10 93.6 °F /  34.2 °C 64.9 °F /  18.3 °C 30 in /  1014.8 hPa SSW 3 mph /  4.8 km/h 5 mph /  8.0 km/h 39 % 0 in /  0.0 mm
08:20 94.5 °F /  34.7 °C 66.4 °F /  19.1 °C 30 in /  1014.8 hPa SSW 2 mph /  3.2 km/h 4 mph /  6.4 km/h 40 % 0 in /  0.0 mm
08:30 93.2 °F /  34.0 °C 64.6 °F /  18.1 °C 30 in /  1014.8 hPa SSW 2 mph /  3.2 km/h 6 mph /  9.7 km/h 39 % 0 in /  0.0 mm
08:40 93 °F /  33.9 °C 65.1 °F /  18.4 °C 30 in /  1014.8 hPa South 2 mph /  3.2 km/h 5 mph /  8.0 km/h 40 % 0 in /  0.0 mm
08:50 91 °F /  32.8 °C 64.8 °F /  18.2 °C 29.9 in /  1013.8 hPa SW 2 mph /  3.2 km/h 6 mph /  9.7 km/h 42 % 0 in /  0.0 mm
09:00 92.5 °F /  33.6 °C 65.5 °F /  18.6 °C 29.9 in /  1013.8 hPa SW 5 mph /  8.0 km/h 6 mph /  9.7 km/h 41 % 0 in /  0.0 mm
09:10 92.1 °F /  33.4 °C 65.7 °F /  18.7 °C 30 in /  1014.8 hPa SW 5 mph /  8.0 km/h 6 mph /  9.7 km/h 42 % 0 in /  0.0 mm
09:20 92.7 °F /  33.7 °C 65.5 °F /  18.6 °C 30 in /  1014.8 hPa SW 5 mph /  8.0 km/h 6 mph /  9.7 km/h 41 % 0 in /  0.0 mm
09:30 92.7 °F /  33.7 °C 65.5 °F /  18.6 °C 30 in /  1014.8 hPa SW 2 mph /  3.2 km/h 10 mph /  16.1 km/h 41 % 0 in /  0.0 mm
09:40 93.4 °F /  34.1 °C 66.2 °F /  19.0 °C 30 in /  1014.8 hPa SSW 5 mph /  8.0 km/h 8 mph /  12.9 km/h 41 % 0 in /  0.0 mm
09:50 92.5 °F /  33.6 °C 65.5 °F /  18.6 °C 30 in /  1014.8 hPa SW 3 mph /  4.8 km/h 7 mph /  11.3 km/h 41 % 0 in /  0.0 mm
10:00 93.9 °F /  34.4 °C 65.8 °F /  18.8 °C 30 in /  1014.8 hPa SW 3 mph /  4.8 km/h 4 mph /  6.4 km/h 40 % 0 in /  0.0 mm
10:10 93.6 °F /  34.2 °C 64.9 °F /  18.3 °C 30 in /  1014.8 hPa SW 3 mph /  4.8 km/h 8 mph /  12.9 km/h 39 % 0 in /  0.0 mm
10:20 93.2 °F /  34.0 °C 64.6 °F /  18.1 °C 30 in /  1014.8 hPa SW 6 mph /  9.7 km/h 8 mph /  12.9 km/h 39 % 0 in /  0.0 mm
10:30 93.2 °F /  34.0 °C 64.6 °F /  18.1 °C 30 in /  1014.8 hPa SW 3 mph /  4.8 km/h 3 mph /  4.8 km/h 39 % 0 in /  0.0 mm
10:40 94.3 °F /  34.6 °C 66.4 °F /  19.1 °C 30 in /  1014.8 hPa SSW 3 mph /  4.8 km/h 5 mph /  8.0 km/h 40 % 0 in /  0.0 mm
15:44 93.7 °F /  34.3 °C 64.9 °F /  18.3 °C 30 in /  1014.8 hPa West 11.5 mph /  18.5 km/h 11.5 mph /  18.5 km/h 39 % 0 in /  0.0 mm
15:49 93.9 °F /  34.4 °C 65.1 °F /  18.4 °C 29.9 in /  1013.8 hPa SW 10.4 mph /  16.7 km/h 10.4 mph /  16.7 km/h 39 % 0 in /  0.0 mm
15:54 93.9 °F /  34.4 °C 65.1 °F /  18.4 °C 29.9 in /  1013.8 hPa South 15 mph /  24.1 km/h 15 mph /  24.1 km/h 39 % 0 in /  0.0 mm
15:59 93.4 °F /  34.1 °C 64.8 °F /  18.2 °C 29.9 in /  1013.8 hPa SW 5.8 mph /  9.3 km/h 6.4 mph /  10.3 km/h 39 % 0 in /  0.0 mm
16:04 92.3 °F /  33.5 °C 64.6 °F /  18.1 °C 29.9 in /  1013.8 hPa WSW 12.5 mph /  20.1 km/h 12.5 mph /  20.1 km/h 40 % 0 in /  0.0 mm
16:09 91.8 °F /  33.2 °C 64.8 °F /  18.2 °C 29.9 in /  1013.8 hPa WSW 10.2 mph /  16.4 km/h 10.2 mph /  16.4 km/h 41 % 0 in /  0.0 mm
16:14 91.8 °F /  33.2 °C 64.8 °F /  18.2 °C 29.9 in /  1013.8 hPa SSW 11.5 mph /  18.5 km/h 11.5 mph /  18.5 km/h 41 % 0 in /  0.0 mm
16:19 92.3 °F /  33.5 °C 65.1 °F /  18.4 °C 29.9 in /  1013.8 hPa WSW 12.7 mph /  20.4 km/h 12.7 mph /  20.4 km/h 41 % 0 in /  0.0 mm
16:24 91.9 °F /  33.3 °C 64.9 °F /  18.3 °C 29.9 in /  1013.8 hPa SW 8.1 mph /  13.0 km/h 8.1 mph /  13.0 km/h 41 % 0 in /  0.0 mm
16:29 91.6 °F /  33.1 °C 65.1 °F /  18.4 °C 29.9 in /  1013.8 hPa South 5.8 mph /  9.3 km/h 5.8 mph /  9.3 km/h 42 % 0 in /  0.0 mm
16:34 91.2 °F /  32.9 °C 65.7 °F /  18.7 °C 29.9 in /  1013.8 hPa SSW 8.1 mph /  13.0 km/h 8.1 mph /  13.0 km/h 43 % 0 in /  0.0 mm
16:39 91.6 °F /  33.1 °C 65.1 °F /  18.4 °C 29.9 in /  1013.8 hPa SSW 8.1 mph /  13.0 km/h 8.1 mph /  13.0 km/h 42 % 0 in /  0.0 mm
16:44 91.4 °F /  33.0 °C 65.8 °F /  18.8 °C 29.9 in /  1013.8 hPa South 10.9 mph /  17.5 km/h 10.9 mph /  17.5 km/h 43 % 0 in /  0.0 mm
16:49 90.9 °F /  32.7 °C 65.3 °F /  18.5 °C 29.9 in /  1013.8 hPa South 13.8 mph /  22.2 km/h 13.8 mph /  22.2 km/h 43 % 0 in /  0.0 mm
16:54 90.1 °F /  32.3 °C 65.3 °F /  18.5 °C 29.9 in /  1013.8 hPa WSW 9.2 mph /  14.8 km/h 9.2 mph /  14.8 km/h 44 % 0 in /  0.0 mm
16:59 90.7 °F /  32.6 °C 65.8 °F /  18.8 °C 29.9 in /  1013.8 hPa SW 8.1 mph /  13.0 km/h 8.1 mph /  13.0 km/h 44 % 0 in /  0.0 mm
17:04 90 °F /  32.2 °C 65.8 °F /  18.8 °C 29.9 in /  1013.8 hPa SSW 9.2 mph /  14.8 km/h 9.2 mph /  14.8 km/h 45 % 0 in /  0.0 mm
17:09 89.4 °F /  31.9 °C 65.8 °F /  18.8 °C 29.9 in /  1013.8 hPa SSW 10.4 mph /  16.7 km/h 10.4 mph /  16.7 km/h 46 % 0 in /  0.0 mm
17:14 90.1 °F /  32.3 °C 65.8 °F /  18.8 °C 29.9 in /  1013.8 hPa WSW 4.6 mph /  7.4 km/h 4.6 mph /  7.4 km/h 45 % 0 in /  0.0 mm
17:19 90.3 °F /  32.4 °C 66.7 °F /  19.3 °C 29.9 in /  1013.8 hPa SW 12.1 mph /  19.5 km/h 12.1 mph /  19.5 km/h 46 % 0 in /  0.0 mm
17:24 89.4 °F /  31.9 °C 65.8 °F /  18.8 °C 29.9 in /  1013.8 hPa WSW 11.5 mph /  18.5 km/h 11.5 mph /  18.5 km/h 46 % 0 in /  0.0 mm
17:29 90.3 °F /  32.4 °C 66.7 °F /  19.3 °C 29.9 in /  1013.8 hPa West 5.8 mph /  9.3 km/h 5.8 mph /  9.3 km/h 46 % 0 in /  0.0 mm
17:34 89.1 °F /  31.7 °C 66.2 °F /  19.0 °C 29.9 in /  1013.8 hPa South 8.1 mph /  13.0 km/h 8.1 mph /  13.0 km/h 47 % 0 in /  0.0 mm
17:39 87.6 °F /  30.9 °C 65.5 °F /  18.6 °C 29.9 in /  1013.8 hPa SW 4.6 mph /  7.4 km/h 4.6 mph /  7.4 km/h 48 % 0 in /  0.0 mm
17:44 87.1 °F /  30.6 °C 65.7 °F /  18.7 °C 29.9 in /  1013.8 hPa WSW 5.8 mph /  9.3 km/h 5.8 mph /  9.3 km/h 49 % 0 in /  0.0 mm
17:49 86.5 °F /  30.3 °C 65.7 °F /  18.7 °C 30 in /  1014.8 hPa West 9.2 mph /  14.8 km/h 9.2 mph /  14.8 km/h 50 % 0 in /  0.0 mm
17:54 86.2 °F /  30.1 °C 65.8 °F /  18.8 °C 30 in /  1014.8 hPa SW 15 mph /  24.1 km/h 15 mph /  24.1 km/h 51 % 0 in /  0.0 mm
17:59 86.5 °F /  30.3 °C 66.4 °F /  19.1 °C 30 in /  1014.8 hPa SSW 6.9 mph /  11.1 km/h 6.9 mph /  11.1 km/h 51 % 0 in /  0.0 mm
18:04 87.1 °F /  30.6 °C 66.7 °F /  19.3 °C 30 in /  1014.8 hPa SW 10.2 mph /  16.4 km/h 10.2 mph /  16.4 km/h 51 % 0 in /  0.0 mm
18:09 86.7 °F /  30.4 °C 66.4 °F /  19.1 °C 30 in /  1014.8 hPa South 8.1 mph /  13.0 km/h 8.1 mph /  13.0 km/h 51 % 0 in /  0.0 mm
18:14 86.5 °F /  30.3 °C 66.4 °F /  19.1 °C 30 in /  1014.8 hPa SSW 6.9 mph /  11.1 km/h 6.9 mph /  11.1 km/h 51 % 0 in /  0.0 mm
18:15 86.7 °F /  30.4 °C 66.4 °F /  19.1 °C 30 in /  1014.8 hPa SW 9.2 mph /  14.8 km/h 9.2 mph /  14.8 km/h 51 % 0 in /  0.0 mm
18:20 87.3 °F /  30.7 °C 66.9 °F /  19.4 °C 29.9 in /  1013.8 hPa SW 5.8 mph /  9.3 km/h 5.8 mph /  9.3 km/h 51 % 0 in /  0.0 mm
18:25 86.4 °F /  30.2 °C 66.7 °F /  19.3 °C 29.9 in /  1013.8 hPa SW 6.4 mph /  10.3 km/h 6.4 mph /  10.3 km/h 52 % 0 in /  0.0 mm
18:30 85.8 °F /  29.9 °C 66.2 °F /  19.0 °C 29.9 in /  1013.8 hPa SW 9.2 mph /  14.8 km/h 9.2 mph /  14.8 km/h 52 % 0 in /  0.0 mm
18:35 85.5 °F /  29.7 °C 66.4 °F /  19.1 °C 29.9 in /  1013.8 hPa South 8.1 mph /  13.0 km/h 8.1 mph /  13.0 km/h 53 % 0 in /  0.0 mm
18:40 85.1 °F /  29.5 °C 66 °F /  18.9 °C 29.9 in /  1013.8 hPa South 10.4 mph /  16.7 km/h 10.4 mph /  16.7 km/h 53 % 0 in /  0.0 mm
18:45 84.9 °F /  29.4 °C 66.4 °F /  19.1 °C 29.9 in /  1013.8 hPa SSW 5.8 mph /  9.3 km/h 5.8 mph /  9.3 km/h 54 % 0 in /  0.0 mm
18:50 84.9 °F /  29.4 °C 66.4 °F /  19.1 °C 30 in /  1014.8 hPa SSW 9.2 mph /  14.8 km/h 9.2 mph /  14.8 km/h 54 % 0 in /  0.0 mm
18:55 84.9 °F /  29.4 °C 66.4 °F /  19.1 °C 30 in /  1014.8 hPa SW 8.1 mph /  13.0 km/h 8.1 mph /  13.0 km/h 54 % 0 in /  0.0 mm
19:05 84.7 °F /  29.3 °C 66.4 °F /  19.1 °C 30 in /  1014.8 hPa SSE 10.4 mph /  16.7 km/h 10.4 mph /  16.7 km/h 54 % 0 in /  0.0 mm
19:10 84.2 °F /  29.0 °C 66.4 °F /  19.1 °C 30 in /  1014.8 hPa SSW 5.8 mph /  9.3 km/h 5.8 mph /  9.3 km/h 55 % 0 in /  0.0 mm
19:15 84.6 °F /  29.2 °C 66 °F /  18.9 °C 30 in /  1014.8 hPa WSW 8.7 mph /  14.0 km/h 8.7 mph /  14.0 km/h 54 % 0 in /  0.0 mm
19:20 84.4 °F /  29.1 °C 66.4 °F /  19.1 °C 29.9 in /  1013.8 hPa West 6.9 mph /  11.1 km/h 6.9 mph /  11.1 km/h 55 % 0 in /  0.0 mm
19:25 84.6 °F /  29.2 °C 66.6 °F /  19.2 °C 29.9 in /  1013.8 hPa SW 5.9 mph /  9.5 km/h 5.9 mph /  9.5 km/h 55 % 0 in /  0.0 mm
19:30 84.4 °F /  29.1 °C 66.4 °F /  19.1 °C 29.9 in /  1013.8 hPa SW 5.8 mph /  9.3 km/h 5.8 mph /  9.3 km/h 55 % 0 in /  0.0 mm
19:35 83.7 °F /  28.7 °C 66.4 °F /  19.1 °C 29.9 in /  1013.8 hPa SSW 8.1 mph /  13.0 km/h 8.1 mph /  13.0 km/h 56 % 0 in /  0.0 mm
19:40 83.3 °F /  28.5 °C 66.6 °F /  19.2 °C 29.9 in /  1013.8 hPa SW 6.9 mph /  11.1 km/h 6.9 mph /  11.1 km/h 57 % 0 in /  0.0 mm
19:45 83.1 °F /  28.4 °C 66.4 °F /  19.1 °C 29.9 in /  1013.8 hPa WSW 5.8 mph /  9.3 km/h 5.8 mph /  9.3 km/h 57 % 0 in /  0.0 mm
19:50 83.1 °F /  28.4 °C 66.4 °F /  19.1 °C 30 in /  1014.8 hPa SSW 5.8 mph /  9.3 km/h 5.8 mph /  9.3 km/h 57 % 0 in /  0.0 mm
19:55 82.4 °F /  28.0 °C 65.7 °F /  18.7 °C 30 in /  1014.8 hPa WSW 9.2 mph /  14.8 km/h 9.2 mph /  14.8 km/h 57 % 0 in /  0.0 mm
20:00 82.4 °F /  28.0 °C 66 °F /  18.9 °C 30 in /  1014.8 hPa SW 5.8 mph /  9.3 km/h 5.8 mph /  9.3 km/h 58 % 0 in /  0.0 mm
20:05 82 °F /  27.8 °C 65.8 °F /  18.8 °C 29.9 in /  1013.8 hPa SW 9.2 mph /  14.8 km/h 9.2 mph /  14.8 km/h 58 % 0 in /  0.0 mm
20:10 81.9 °F /  27.7 °C 66 °F /  18.9 °C 29.9 in /  1013.8 hPa SW 6.9 mph /  11.1 km/h 6.9 mph /  11.1 km/h 59 % 0 in /  0.0 mm
20:15 81.5 °F /  27.5 °C 65.8 °F /  18.8 °C 29.9 in /  1013.8 hPa ESE 5.8 mph /  9.3 km/h 5.8 mph /  9.3 km/h 59 % 0 in /  0.0 mm
20:25 81 °F /  27.2 °C 65.8 °F /  18.8 °C 29.9 in /  1013.8 hPa SSW 5.8 mph /  9.3 km/h 5.8 mph /  9.3 km/h 60 % 0 in /  0.0 mm
20:30 80.8 °F /  27.1 °C 65.7 °F /  18.7 °C 29.9 in /  1013.8 hPa South 3.5 mph /  5.6 km/h 3.5 mph /  5.6 km/h 60 % 0 in /  0.0 mm
20:35 80.6 °F /  27.0 °C 65.8 °F /  18.8 °C 29.9 in /  1013.8 hPa SSW 4.6 mph /  7.4 km/h 4.6 mph /  7.4 km/h 61 % 0 in /  0.0 mm
20:40 80.2 °F /  26.8 °C 66 °F /  18.9 °C 29.9 in /  1013.8 hPa SW 5.8 mph /  9.3 km/h 5.8 mph /  9.3 km/h 62 % 0 in /  0.0 mm
20:45 79.9 °F /  26.6 °C 65.1 °F /  18.4 °C 29.9 in /  1013.8 hPa South 5.8 mph /  9.3 km/h 5.8 mph /  9.3 km/h 61 % 0 in /  0.0 mm
20:50 79.7 °F /  26.5 °C 65.5 °F /  18.6 °C 30 in /  1014.8 hPa SSW 2.6 mph /  4.2 km/h 2.6 mph /  4.2 km/h 62 % 0 in /  0.0 mm
20:55 79.5 °F /  26.4 °C 65.8 °F /  18.8 °C 30 in /  1014.8 hPa West 5.8 mph /  9.3 km/h 5.8 mph /  9.3 km/h 63 % 0 in /  0.0 mm
21:00 79.3 °F /  26.3 °C 65.1 °F /  18.4 °C 30 in /  1014.8 hPa SW 4.6 mph /  7.4 km/h 4.6 mph /  7.4 km/h 62 % 0 in /  0.0 mm
21:05 78.8 °F /  26.0 °C 65.1 °F /  18.4 °C 30 in /  1014.8 hPa WSW 7.1 mph /  11.4 km/h 7.1 mph /  11.4 km/h 63 % 0 in /  0.0 mm
21:10 78.4 °F /  25.8 °C 64.8 °F /  18.2 °C 30 in /  1014.8 hPa SW 6.9 mph /  11.1 km/h 6.9 mph /  11.1 km/h 63 % 0 in /  0.0 mm
21:15 78.3 °F /  25.7 °C 65.1 °F /  18.4 °C 30 in /  1014.8 hPa WSW 3.5 mph /  5.6 km/h 3.5 mph /  5.6 km/h 64 % 0 in /  0.0 mm
21:20 78.1 °F /  25.6 °C 64.9 °F /  18.3 °C 30 in /  1014.8 hPa WSW 2.3 mph /  3.7 km/h 2.3 mph /  3.7 km/h 64 % 0 in /  0.0 mm
21:25 78.1 °F /  25.6 °C 64.9 °F /  18.3 °C 30 in /  1014.8 hPa SSW 4.6 mph /  7.4 km/h 4.6 mph /  7.4 km/h 64 % 0 in /  0.0 mm
21:30 77.9 °F /  25.5 °C 64.8 °F /  18.2 °C 30 in /  1014.8 hPa SW 5.8 mph /  9.3 km/h 5.8 mph /  9.3 km/h 64 % 0 in /  0.0 mm
21:35 77.7 °F /  25.4 °C 64.6 °F /  18.1 °C 30 in /  1014.8 hPa SW 5.8 mph /  9.3 km/h 5.8 mph /  9.3 km/h 64 % 0 in /  0.0 mm
21:40 77.5 °F /  25.3 °C 64.8 °F /  18.2 °C 30 in /  1014.8 hPa SSW 2.4 mph /  3.9 km/h 2.4 mph /  3.9 km/h 65 % 0 in /  0.0 mm
21:45 77.4 °F /  25.2 °C 64.8 °F /  18.2 °C 30 in /  1014.8 hPa SW 3.5 mph /  5.6 km/h 3.5 mph /  5.6 km/h 65 % 0 in /  0.0 mm
21:50 77.2 °F /  25.1 °C 64.6 °F /  18.1 °C 30 in /  1014.8 hPa SSE 3.6 mph /  5.8 km/h 3.6 mph /  5.8 km/h 65 % 0 in /  0.0 mm
21:55 77 °F /  25.0 °C 64.2 °F /  17.9 °C 30 in /  1014.8 hPa SW 3.1 mph /  5.0 km/h 3.1 mph /  5.0 km/h 65 % 0 in /  0.0 mm
22:00 76.8 °F /  24.9 °C 64.9 °F /  18.3 °C 30 in /  1014.8 hPa SW 3.5 mph /  5.6 km/h 3.5 mph /  5.6 km/h 67 % 0 in /  0.0 mm
22:05 76.6 °F /  24.8 °C 64.9 °F /  18.3 °C 30 in /  1014.8 hPa WSW 2.3 mph /  3.7 km/h 2.3 mph /  3.7 km/h 67 % 0 in /  0.0 mm
22:10 76.6 °F /  24.8 °C 64.9 °F /  18.3 °C 30 in /  1014.8 hPa South 2.3 mph /  3.7 km/h 2.3 mph /  3.7 km/h 67 % 0 in /  0.0 mm
22:15 76.5 °F /  24.7 °C 65.1 °F /  18.4 °C 30 in /  1014.8 hPa WSW 2.6 mph /  4.2 km/h 2.6 mph /  4.2 km/h 68 % 0 in /  0.0 mm
22:20 76.3 °F /  24.6 °C 64.9 °F /  18.3 °C 30 in /  1015.8 hPa SW 3.5 mph /  5.6 km/h 3.5 mph /  5.6 km/h 68 % 0 in /  0.0 mm
22:25 76.3 °F /  24.6 °C 64.9 °F /  18.3 °C 30 in /  1015.8 hPa SW 3.5 mph /  5.6 km/h 3.5 mph /  5.6 km/h 68 % 0 in /  0.0 mm
22:30 76.1 °F /  24.5 °C 65.1 °F /  18.4 °C 30 in /  1015.8 hPa SW 2.4 mph /  3.9 km/h 2.4 mph /  3.9 km/h 69 % 0 in /  0.0 mm
22:35 75.9 °F /  24.4 °C 64.9 °F /  18.3 °C 30 in /  1015.8 hPa SW 2.3 mph /  3.7 km/h 2.3 mph /  3.7 km/h 69 % 0 in /  0.0 mm
22:40 75.9 °F /  24.4 °C 64.9 °F /  18.3 °C 30 in /  1015.8 hPa SW 3.5 mph /  5.6 km/h 3.5 mph /  5.6 km/h 69 % 0 in /  0.0 mm
22:41 75.7 °F /  24.3 °C 64.8 °F /  18.2 °C 30 in /  1015.8 hPa SW 3.5 mph /  5.6 km/h 3.5 mph /  5.6 km/h 69 % 0 in /  0.0 mm
22:45 73 °F /  22.8 °C 64.6 °F /  18.1 °C 30 in /  1015.8 hPa Calm   2 mph /  3.2 km/h 75 % 0 in /  0.0 mm
22:46 75.7 °F /  24.3 °C 64.8 °F /  18.2 °C 30 in /  1015.8 hPa WSW 3.5 mph /  5.6 km/h 3.5 mph /  5.6 km/h 69 % 0 in /  0.0 mm
22:51 75.7 °F /  24.3 °C 64.8 °F /  18.2 °C 30 in /  1015.8 hPa SW 2.3 mph /  3.7 km/h 2.3 mph /  3.7 km/h 69 % 0 in /  0.0 mm
22:55 72.9 °F /  22.7 °C 64.8 °F /  18.2 °C 30 in /  1014.8 hPa Calm     76 % 0 in /  0.0 mm
22:56 75.6 °F /  24.2 °C 65.1 °F /  18.4 °C 30 in /  1015.8 hPa SW 2.6 mph /  4.2 km/h 2.6 mph /  4.2 km/h 70 % 0 in /  0.0 mm
23:01 75.6 °F /  24.2 °C 65.1 °F /  18.4 °C 30 in /  1015.8 hPa WSW 2.3 mph /  3.7 km/h 2.3 mph /  3.7 km/h 70 % 0 in /  0.0 mm
23:05 72.7 °F /  22.6 °C 64.8 °F /  18.2 °C 30 in /  1014.8 hPa Calm     76 % 0 in /  0.0 mm
23:06 75.4 °F /  24.1 °C 64.9 °F /  18.3 °C 30 in /  1015.8 hPa SW 4.6 mph /  7.4 km/h 4.6 mph /  7.4 km/h 70 % 0 in /  0.0 mm
23:11 75.4 °F /  24.1 °C 64.9 °F /  18.3 °C 30 in /  1015.8 hPa SW 2.3 mph /  3.7 km/h 2.3 mph /  3.7 km/h 70 % 0 in /  0.0 mm
23:15 72.5 °F /  22.5 °C 64.6 °F /  18.1 °C 30 in /  1014.8 hPa SW 1 mph /  1.6 km/h 2 mph /  3.2 km/h 76 % 0 in /  0.0 mm
23:16 75.4 °F /  24.1 °C 64.9 °F /  18.3 °C 30 in /  1015.8 hPa SW 3.5 mph /  5.6 km/h 3.5 mph /  5.6 km/h 70 % 0 in /  0.0 mm
23:18 75.4 °F /  24.1 °C 65.3 °F /  18.5 °C 30 in /  1015.8 hPa SW 1.2 mph /  1.9 km/h 1.2 mph /  1.9 km/h 71 % 0 in /  0.0 mm
23:23 75.2 °F /  24.0 °C 64.8 °F /  18.2 °C 30 in /  1015.8 hPa SW 2.3 mph /  3.7 km/h 2.3 mph /  3.7 km/h 70 % 0 in /  0.0 mm
23:25 72.3 °F /  22.4 °C 64.8 °F /  18.2 °C 30 in /  1015.8 hPa Calm   1 mph /  1.6 km/h 77 % 0 in /  0.0 mm
23:28 75.2 °F /  24.0 °C 65.1 °F /  18.4 °C 30 in /  1015.8 hPa SW 2.3 mph /  3.7 km/h 2.3 mph /  3.7 km/h 71 % 0 in /  0.0 mm
23:33 75.2 °F /  24.0 °C 65.1 °F /  18.4 °C 30 in /  1015.8 hPa SW 2 mph /  3.2 km/h 2 mph /  3.2 km/h 71 % 0 in /  0.0 mm
23:35 72.3 °F /  22.4 °C 64.8 °F /  18.2 °C 30 in /  1014.8 hPa Calm     77 % 0 in /  0.0 mm
23:38 75 °F /  23.9 °C 65.5 °F /  18.6 °C 30 in /  1015.8 hPa WSW 1.2 mph /  1.9 km/h 1.2 mph /  1.9 km/h 72 % 0 in /  0.0 mm
23:43 75 °F /  23.9 °C 65.5 °F /  18.6 °C 30 in /  1015.8 hPa WSW 2.3 mph /  3.7 km/h   72 % 0 in /  0.0 mm
23:45 72.1 °F /  22.3 °C 64.6 °F /  18.1 °C 30 in /  1014.8 hPa Calm     77 % 0 in /  0.0 mm
23:48 74.8 °F /  23.8 °C 65.1 °F /  18.4 °C 30 in /  1014.8 hPa SW 2.3 mph /  3.7 km/h 2.3 mph /  3.7 km/h 72 % 0 in /  0.0 mm
23:53 74.8 °F /  23.8 °C 65.1 °F /  18.4 °C 30 in /  1014.8 hPa WSW 1.2 mph /  1.9 km/h 1.2 mph /  1.9 km/h 72 % 0 in /  0.0 mm
23:55 72 °F /  22.2 °C 64.8 °F /  18.2 °C 30 in /  1014.8 hPa Calm     78 % 0 in /  0.0 mm
23:58 74.8 °F /  23.8 °C 65.1 °F /  18.4 °C 30 in /  1014.8 hPa SW 2.3 mph /  3.7 km/h 2.3 mph /  3.7 km/h 72 % 0 in /  0.0 mm
Meteo Sesrovires
Elogis d' Weather Underground - 3.5 mb

Guio original per  Jim McMurry - jmcmurry@mwt.net Adaptat per a la plantilla per  Wim van der Kuil - Leuven-Template.eu

Trobareu la nostra informacio del temps tambe a:

Weather Underground

AWEKAS